sensor_id;sensor_type;location;lat;lon;timestamp;P1;durP1;ratioP1;P2;durP2;ratioP2
70253;SDS011;57649;42.968;1.608;2023-04-19T00:00:17;5.20;;;4.50;;
70253;SDS011;57649;42.968;1.608;2023-04-19T00:02:43;6.97;;;5.15;;
70253;SDS011;57649;42.968;1.608;2023-04-19T00:05:09;5.53;;;4.72;;
70253;SDS011;57649;42.968;1.608;2023-04-19T00:07:35;6.50;;;4.95;;
70253;SDS011;57649;42.968;1.608;2023-04-19T00:10:01;7.00;;;5.00;;
70253;SDS011;57649;42.968;1.608;2023-04-19T00:12:27;7.43;;;5.47;;
70253;SDS011;57649;42.968;1.608;2023-04-19T00:14:52;6.95;;;5.00;;
70253;SDS011;57649;42.968;1.608;2023-04-19T00:17:18;7.47;;;5.00;;
70253;SDS011;57649;42.968;1.608;2023-04-19T00:19:44;7.68;;;5.55;;
70253;SDS011;57649;42.968;1.608;2023-04-19T00:22:09;6.50;;;5.25;;
70253;SDS011;57649;42.968;1.608;2023-04-19T00:24:34;5.78;;;4.90;;
70253;SDS011;57649;42.968;1.608;2023-04-19T00:27:00;6.55;;;5.40;;
70253;SDS011;57649;42.968;1.608;2023-04-19T00:29:26;9.38;;;5.13;;
70253;SDS011;57649;42.968;1.608;2023-04-19T00:31:51;6.35;;;4.72;;
70253;SDS011;57649;42.968;1.608;2023-04-19T00:34:17;8.05;;;5.15;;
70253;SDS011;57649;42.968;1.608;2023-04-19T00:36:42;7.35;;;4.80;;
70253;SDS011;57649;42.968;1.608;2023-04-19T00:39:07;7.53;;;4.80;;
70253;SDS011;57649;42.968;1.608;2023-04-19T00:41:33;6.78;;;4.85;;
70253;SDS011;57649;42.968;1.608;2023-04-19T00:43:58;5.32;;;4.75;;
70253;SDS011;57649;42.968;1.608;2023-04-19T00:46:24;5.80;;;4.65;;
70253;SDS011;57649;42.968;1.608;2023-04-19T00:48:50;6.53;;;4.65;;
70253;SDS011;57649;42.968;1.608;2023-04-19T00:51:15;8.48;;;4.90;;
70253;SDS011;57649;42.968;1.608;2023-04-19T00:53:41;9.48;;;4.80;;
70253;SDS011;57649;42.968;1.608;2023-04-19T00:56:07;6.78;;;5.07;;
70253;SDS011;57649;42.968;1.608;2023-04-19T00:58:34;6.53;;;4.97;;
70253;SDS011;57649;42.968;1.608;2023-04-19T01:01:02;6.45;;;4.97;;
70253;SDS011;57649;42.968;1.608;2023-04-19T01:03:28;7.28;;;5.05;;
70253;SDS011;57649;42.968;1.608;2023-04-19T01:05:54;5.90;;;4.65;;
70253;SDS011;57649;42.968;1.608;2023-04-19T01:08:21;8.82;;;4.65;;
70253;SDS011;57649;42.968;1.608;2023-04-19T01:10:46;6.30;;;4.78;;
70253;SDS011;57649;42.968;1.608;2023-04-19T01:13:12;6.65;;;5.10;;
70253;SDS011;57649;42.968;1.608;2023-04-19T01:15:37;6.75;;;5.05;;
70253;SDS011;57649;42.968;1.608;2023-04-19T01:18:03;5.60;;;4.65;;
70253;SDS011;57649;42.968;1.608;2023-04-19T01:20:28;7.22;;;4.68;;
70253;SDS011;57649;42.968;1.608;2023-04-19T01:22:54;6.70;;;4.43;;
70253;SDS011;57649;42.968;1.608;2023-04-19T01:25:19;6.05;;;5.00;;
70253;SDS011;57649;42.968;1.608;2023-04-19T01:27:45;6.30;;;5.00;;
70253;SDS011;57649;42.968;1.608;2023-04-19T01:30:10;10.35;;;4.82;;
70253;SDS011;57649;42.968;1.608;2023-04-19T01:32:36;6.95;;;5.10;;
70253;SDS011;57649;42.968;1.608;2023-04-19T01:35:01;5.35;;;4.80;;
70253;SDS011;57649;42.968;1.608;2023-04-19T01:37:27;6.25;;;5.18;;
70253;SDS011;57649;42.968;1.608;2023-04-19T01:39:52;5.78;;;4.45;;
70253;SDS011;57649;42.968;1.608;2023-04-19T01:42:18;5.80;;;4.70;;
70253;SDS011;57649;42.968;1.608;2023-04-19T01:44:43;8.00;;;5.13;;
70253;SDS011;57649;42.968;1.608;2023-04-19T01:47:08;5.65;;;4.75;;
70253;SDS011;57649;42.968;1.608;2023-04-19T01:49:34;6.82;;;4.70;;
70253;SDS011;57649;42.968;1.608;2023-04-19T01:51:59;5.82;;;4.43;;
70253;SDS011;57649;42.968;1.608;2023-04-19T01:54:25;5.68;;;4.63;;
70253;SDS011;57649;42.968;1.608;2023-04-19T01:56:51;6.75;;;4.85;;
70253;SDS011;57649;42.968;1.608;2023-04-19T01:59:16;7.68;;;4.82;;
70253;SDS011;57649;42.968;1.608;2023-04-19T02:01:41;6.78;;;4.70;;
70253;SDS011;57649;42.968;1.608;2023-04-19T02:04:07;5.38;;;4.43;;
70253;SDS011;57649;42.968;1.608;2023-04-19T02:06:33;6.07;;;4.97;;
70253;SDS011;57649;42.968;1.608;2023-04-19T02:08:58;5.75;;;4.10;;
70253;SDS011;57649;42.968;1.608;2023-04-19T02:11:24;6.13;;;4.53;;
70253;SDS011;57649;42.968;1.608;2023-04-19T02:13:49;7.95;;;4.30;;
70253;SDS011;57649;42.968;1.608;2023-04-19T02:16:14;7.00;;;5.38;;
70253;SDS011;57649;42.968;1.608;2023-04-19T02:18:40;6.10;;;4.55;;
70253;SDS011;57649;42.968;1.608;2023-04-19T02:21:06;6.80;;;4.82;;
70253;SDS011;57649;42.968;1.608;2023-04-19T02:23:32;6.43;;;4.70;;
70253;SDS011;57649;42.968;1.608;2023-04-19T02:25:58;4.47;;;3.97;;
70253;SDS011;57649;42.968;1.608;2023-04-19T02:28:26;6.72;;;4.97;;
70253;SDS011;57649;42.968;1.608;2023-04-19T02:30:52;5.95;;;4.43;;
70253;SDS011;57649;42.968;1.608;2023-04-19T02:33:17;7.22;;;4.78;;
70253;SDS011;57649;42.968;1.608;2023-04-19T02:35:43;8.85;;;4.75;;
70253;SDS011;57649;42.968;1.608;2023-04-19T02:38:08;8.05;;;4.97;;
70253;SDS011;57649;42.968;1.608;2023-04-19T02:40:33;6.50;;;4.63;;
70253;SDS011;57649;42.968;1.608;2023-04-19T02:42:59;6.65;;;4.88;;
70253;SDS011;57649;42.968;1.608;2023-04-19T02:45:24;5.90;;;4.57;;
70253;SDS011;57649;42.968;1.608;2023-04-19T02:47:50;5.47;;;4.40;;
70253;SDS011;57649;42.968;1.608;2023-04-19T02:50:15;6.85;;;4.78;;
70253;SDS011;57649;42.968;1.608;2023-04-19T02:52:41;7.45;;;4.22;;
70253;SDS011;57649;42.968;1.608;2023-04-19T02:55:06;8.68;;;4.65;;
70253;SDS011;57649;42.968;1.608;2023-04-19T02:57:32;6.18;;;4.22;;
70253;SDS011;57649;42.968;1.608;2023-04-19T02:59:57;7.55;;;4.55;;
70253;SDS011;57649;42.968;1.608;2023-04-19T03:02:23;8.48;;;5.50;;
70253;SDS011;57649;42.968;1.608;2023-04-19T03:04:49;8.70;;;6.20;;
70253;SDS011;57649;42.968;1.608;2023-04-19T03:07:16;15.15;;;11.90;;
70253;SDS011;57649;42.968;1.608;2023-04-19T03:09:42;8.98;;;6.40;;
70253;SDS011;57649;42.968;1.608;2023-04-19T03:12:07;5.90;;;4.90;;
70253;SDS011;57649;42.968;1.608;2023-04-19T03:14:33;11.48;;;9.13;;
70253;SDS011;57649;42.968;1.608;2023-04-19T03:16:58;12.20;;;8.57;;
70253;SDS011;57649;42.968;1.608;2023-04-19T03:19:24;16.17;;;11.27;;
70253;SDS011;57649;42.968;1.608;2023-04-19T03:21:49;11.60;;;8.48;;
70253;SDS011;57649;42.968;1.608;2023-04-19T03:24:17;11.40;;;8.32;;
70253;SDS011;57649;42.968;1.608;2023-04-19T03:26:43;9.65;;;7.68;;
70253;SDS011;57649;42.968;1.608;2023-04-19T03:29:08;10.02;;;7.40;;
70253;SDS011;57649;42.968;1.608;2023-04-19T03:31:34;9.15;;;5.85;;
70253;SDS011;57649;42.968;1.608;2023-04-19T03:33:59;6.95;;;4.80;;
70253;SDS011;57649;42.968;1.608;2023-04-19T03:36:25;6.78;;;5.18;;
70253;SDS011;57649;42.968;1.608;2023-04-19T03:38:51;11.27;;;5.70;;
70253;SDS011;57649;42.968;1.608;2023-04-19T03:41:17;7.15;;;4.85;;
70253;SDS011;57649;42.968;1.608;2023-04-19T03:43:49;5.40;;;4.40;;
70253;SDS011;57649;42.968;1.608;2023-04-19T03:46:14;6.97;;;4.40;;
70253;SDS011;57649;42.968;1.608;2023-04-19T03:48:40;6.30;;;4.22;;
70253;SDS011;57649;42.968;1.608;2023-04-19T03:51:05;5.75;;;4.20;;
70253;SDS011;57649;42.968;1.608;2023-04-19T03:53:31;7.95;;;4.07;;
70253;SDS011;57649;42.968;1.608;2023-04-19T03:55:56;6.95;;;4.90;;
70253;SDS011;57649;42.968;1.608;2023-04-19T03:58:21;5.55;;;4.50;;
70253;SDS011;57649;42.968;1.608;2023-04-19T04:00:47;8.38;;;4.78;;
70253;SDS011;57649;42.968;1.608;2023-04-19T04:03:12;5.45;;;4.30;;
70253;SDS011;57649;42.968;1.608;2023-04-19T04:05:38;7.00;;;4.57;;
70253;SDS011;57649;42.968;1.608;2023-04-19T04:08:03;10.05;;;4.88;;
70253;SDS011;57649;42.968;1.608;2023-04-19T04:10:29;5.68;;;4.43;;
70253;SDS011;57649;42.968;1.608;2023-04-19T04:12:54;5.05;;;4.18;;
70253;SDS011;57649;42.968;1.608;2023-04-19T04:15:20;8.35;;;4.47;;
70253;SDS011;57649;42.968;1.608;2023-04-19T04:17:45;16.23;;;5.95;;
70253;SDS011;57649;42.968;1.608;2023-04-19T04:20:11;8.82;;;4.82;;
70253;SDS011;57649;42.968;1.608;2023-04-19T04:22:43;6.55;;;4.80;;
70253;SDS011;57649;42.968;1.608;2023-04-19T04:25:12;7.28;;;4.40;;
70253;SDS011;57649;42.968;1.608;2023-04-19T04:27:39;5.97;;;4.47;;
70253;SDS011;57649;42.968;1.608;2023-04-19T04:30:06;13.90;;;6.68;;
70253;SDS011;57649;42.968;1.608;2023-04-19T04:32:33;7.97;;;5.20;;
70253;SDS011;57649;42.968;1.608;2023-04-19T04:35:05;7.22;;;4.28;;
70253;SDS011;57649;42.968;1.608;2023-04-19T04:37:32;7.85;;;6.30;;
70253;SDS011;57649;42.968;1.608;2023-04-19T04:39:59;7.22;;;5.38;;
70253;SDS011;57649;42.968;1.608;2023-04-19T04:42:25;6.70;;;4.43;;
70253;SDS011;57649;42.968;1.608;2023-04-19T04:44:51;10.38;;;7.00;;
70253;SDS011;57649;42.968;1.608;2023-04-19T04:47:17;7.78;;;5.70;;
70253;SDS011;57649;42.968;1.608;2023-04-19T04:49:43;8.77;;;5.85;;
70253;SDS011;57649;42.968;1.608;2023-04-19T04:52:08;5.63;;;3.92;;
70253;SDS011;57649;42.968;1.608;2023-04-19T04:54:33;9.75;;;3.97;;
70253;SDS011;57649;42.968;1.608;2023-04-19T04:56:59;6.90;;;4.82;;
70253;SDS011;57649;42.968;1.608;2023-04-19T04:59:25;11.23;;;5.82;;
70253;SDS011;57649;42.968;1.608;2023-04-19T05:01:51;8.85;;;4.82;;
70253;SDS011;57649;42.968;1.608;2023-04-19T05:04:17;9.32;;;5.10;;
70253;SDS011;57649;42.968;1.608;2023-04-19T05:06:43;4.72;;;3.83;;
70253;SDS011;57649;42.968;1.608;2023-04-19T05:09:08;8.23;;;3.97;;
70253;SDS011;57649;42.968;1.608;2023-04-19T05:11:34;6.65;;;3.90;;
70253;SDS011;57649;42.968;1.608;2023-04-19T05:14:00;5.82;;;4.35;;
70253;SDS011;57649;42.968;1.608;2023-04-19T05:16:26;8.63;;;4.55;;
70253;SDS011;57649;42.968;1.608;2023-04-19T05:18:51;9.32;;;7.32;;
70253;SDS011;57649;42.968;1.608;2023-04-19T05:21:17;7.15;;;5.03;;
70253;SDS011;57649;42.968;1.608;2023-04-19T05:23:42;7.22;;;5.13;;
70253;SDS011;57649;42.968;1.608;2023-04-19T05:26:07;6.50;;;5.13;;
70253;SDS011;57649;42.968;1.608;2023-04-19T05:28:36;7.93;;;6.32;;
70253;SDS011;57649;42.968;1.608;2023-04-19T05:31:02;12.00;;;6.63;;
70253;SDS011;57649;42.968;1.608;2023-04-19T05:33:28;9.73;;;5.28;;
70253;SDS011;57649;42.968;1.608;2023-04-19T05:35:53;9.65;;;6.00;;
70253;SDS011;57649;42.968;1.608;2023-04-19T05:38:19;9.68;;;5.88;;
70253;SDS011;57649;42.968;1.608;2023-04-19T05:40:44;8.85;;;5.03;;
70253;SDS011;57649;42.968;1.608;2023-04-19T05:43:10;6.68;;;4.90;;
70253;SDS011;57649;42.968;1.608;2023-04-19T05:45:35;9.00;;;4.93;;
70253;SDS011;57649;42.968;1.608;2023-04-19T05:48:01;7.78;;;4.82;;
70253;SDS011;57649;42.968;1.608;2023-04-19T05:50:26;7.93;;;5.20;;
70253;SDS011;57649;42.968;1.608;2023-04-19T05:52:51;8.02;;;4.85;;
70253;SDS011;57649;42.968;1.608;2023-04-19T05:55:17;6.25;;;4.75;;
70253;SDS011;57649;42.968;1.608;2023-04-19T05:57:42;7.13;;;5.38;;
70253;SDS011;57649;42.968;1.608;2023-04-19T06:00:08;7.68;;;5.45;;
70253;SDS011;57649;42.968;1.608;2023-04-19T06:02:34;12.13;;;5.20;;
70253;SDS011;57649;42.968;1.608;2023-04-19T06:04:59;6.40;;;4.25;;
70253;SDS011;57649;42.968;1.608;2023-04-19T06:07:28;6.70;;;4.78;;
70253;SDS011;57649;42.968;1.608;2023-04-19T06:09:56;6.47;;;4.40;;
70253;SDS011;57649;42.968;1.608;2023-04-19T06:12:22;8.57;;;5.05;;
70253;SDS011;57649;42.968;1.608;2023-04-19T06:14:47;6.68;;;4.78;;
70253;SDS011;57649;42.968;1.608;2023-04-19T06:17:13;6.93;;;5.20;;
70253;SDS011;57649;42.968;1.608;2023-04-19T06:19:40;8.40;;;5.07;;
70253;SDS011;57649;42.968;1.608;2023-04-19T06:22:06;13.10;;;5.75;;
70253;SDS011;57649;42.968;1.608;2023-04-19T06:24:32;11.50;;;5.72;;
70253;SDS011;57649;42.968;1.608;2023-04-19T06:26:57;10.20;;;4.82;;
70253;SDS011;57649;42.968;1.608;2023-04-19T06:29:22;5.55;;;4.28;;
70253;SDS011;57649;42.968;1.608;2023-04-19T06:31:48;10.13;;;5.45;;
70253;SDS011;57649;42.968;1.608;2023-04-19T06:34:14;12.07;;;5.63;;
70253;SDS011;57649;42.968;1.608;2023-04-19T06:36:39;9.18;;;4.50;;
70253;SDS011;57649;42.968;1.608;2023-04-19T06:39:05;9.18;;;5.78;;
70253;SDS011;57649;42.968;1.608;2023-04-19T06:41:31;6.68;;;4.50;;
70253;SDS011;57649;42.968;1.608;2023-04-19T06:43:56;10.13;;;5.25;;
70253;SDS011;57649;42.968;1.608;2023-04-19T06:46:22;9.25;;;5.75;;
70253;SDS011;57649;42.968;1.608;2023-04-19T06:48:48;6.60;;;5.03;;
70253;SDS011;57649;42.968;1.608;2023-04-19T06:51:13;12.20;;;5.13;;
70253;SDS011;57649;42.968;1.608;2023-04-19T06:53:39;9.05;;;4.82;;
70253;SDS011;57649;42.968;1.608;2023-04-19T06:56:05;6.82;;;4.65;;
70253;SDS011;57649;42.968;1.608;2023-04-19T06:58:30;5.70;;;4.45;;
70253;SDS011;57649;42.968;1.608;2023-04-19T07:00:56;9.25;;;4.18;;
70253;SDS011;57649;42.968;1.608;2023-04-19T07:03:22;16.08;;;4.70;;
70253;SDS011;57649;42.968;1.608;2023-04-19T07:05:47;7.90;;;4.30;;
70253;SDS011;57649;42.968;1.608;2023-04-19T07:08:13;8.48;;;4.80;;
70253;SDS011;57649;42.968;1.608;2023-04-19T07:10:39;6.25;;;4.35;;
70253;SDS011;57649;42.968;1.608;2023-04-19T07:13:04;11.98;;;7.68;;
70253;SDS011;57649;42.968;1.608;2023-04-19T07:15:29;5.80;;;4.30;;
70253;SDS011;57649;42.968;1.608;2023-04-19T07:17:55;6.80;;;4.72;;
70253;SDS011;57649;42.968;1.608;2023-04-19T07:20:20;5.63;;;4.40;;
70253;SDS011;57649;42.968;1.608;2023-04-19T07:22:46;5.85;;;4.45;;
70253;SDS011;57649;42.968;1.608;2023-04-19T07:25:11;12.57;;;5.03;;
70253;SDS011;57649;42.968;1.608;2023-04-19T07:27:38;6.97;;;4.00;;
70253;SDS011;57649;42.968;1.608;2023-04-19T07:30:03;9.60;;;4.90;;
70253;SDS011;57649;42.968;1.608;2023-04-19T07:32:29;6.85;;;4.38;;
70253;SDS011;57649;42.968;1.608;2023-04-19T07:34:55;11.70;;;4.50;;
70253;SDS011;57649;42.968;1.608;2023-04-19T07:37:20;4.00;;;3.60;;
70253;SDS011;57649;42.968;1.608;2023-04-19T07:39:46;6.50;;;3.60;;
70253;SDS011;57649;42.968;1.608;2023-04-19T07:42:11;6.30;;;3.63;;
70253;SDS011;57649;42.968;1.608;2023-04-19T07:44:36;7.22;;;3.83;;
70253;SDS011;57649;42.968;1.608;2023-04-19T07:47:03;7.15;;;5.25;;
70253;SDS011;57649;42.968;1.608;2023-04-19T07:49:29;6.90;;;3.15;;
70253;SDS011;57649;42.968;1.608;2023-04-19T07:51:58;5.88;;;3.13;;
70253;SDS011;57649;42.968;1.608;2023-04-19T07:54:25;4.25;;;3.13;;
70253;SDS011;57649;42.968;1.608;2023-04-19T07:56:50;7.07;;;3.25;;
70253;SDS011;57649;42.968;1.608;2023-04-19T07:59:15;6.75;;;3.40;;
70253;SDS011;57649;42.968;1.608;2023-04-19T08:01:41;5.47;;;3.08;;
70253;SDS011;57649;42.968;1.608;2023-04-19T08:04:07;4.43;;;3.20;;
70253;SDS011;57649;42.968;1.608;2023-04-19T08:06:32;7.03;;;3.00;;
70253;SDS011;57649;42.968;1.608;2023-04-19T08:08:58;5.57;;;3.42;;
70253;SDS011;57649;42.968;1.608;2023-04-19T08:11:23;4.00;;;2.88;;
70253;SDS011;57649;42.968;1.608;2023-04-19T08:13:49;4.50;;;2.70;;
70253;SDS011;57649;42.968;1.608;2023-04-19T08:16:14;5.07;;;3.13;;
70253;SDS011;57649;42.968;1.608;2023-04-19T08:18:40;3.90;;;2.85;;
70253;SDS011;57649;42.968;1.608;2023-04-19T08:21:05;5.75;;;2.70;;
70253;SDS011;57649;42.968;1.608;2023-04-19T08:23:31;4.13;;;2.75;;
70253;SDS011;57649;42.968;1.608;2023-04-19T08:25:57;5.75;;;2.38;;
70253;SDS011;57649;42.968;1.608;2023-04-19T08:28:22;5.22;;;2.55;;
70253;SDS011;57649;42.968;1.608;2023-04-19T08:30:47;3.83;;;2.72;;
70253;SDS011;57649;42.968;1.608;2023-04-19T08:33:13;3.47;;;2.40;;
70253;SDS011;57649;42.968;1.608;2023-04-19T08:35:38;10.55;;;2.85;;
70253;SDS011;57649;42.968;1.608;2023-04-19T08:38:06;4.72;;;2.53;;
70253;SDS011;57649;42.968;1.608;2023-04-19T08:40:32;3.20;;;2.28;;
70253;SDS011;57649;42.968;1.608;2023-04-19T08:42:57;4.38;;;2.33;;
70253;SDS011;57649;42.968;1.608;2023-04-19T08:45:26;4.40;;;2.00;;
70253;SDS011;57649;42.968;1.608;2023-04-19T08:47:52;3.28;;;2.28;;
70253;SDS011;57649;42.968;1.608;2023-04-19T08:50:19;3.70;;;2.30;;
70253;SDS011;57649;42.968;1.608;2023-04-19T08:52:48;3.60;;;2.15;;
70253;SDS011;57649;42.968;1.608;2023-04-19T08:55:13;4.68;;;2.42;;
70253;SDS011;57649;42.968;1.608;2023-04-19T08:57:40;6.70;;;3.47;;
70253;SDS011;57649;42.968;1.608;2023-04-19T09:00:06;3.63;;;2.00;;
70253;SDS011;57649;42.968;1.608;2023-04-19T09:02:47;2.65;;;2.03;;
70253;SDS011;57649;42.968;1.608;2023-04-19T09:05:17;3.50;;;1.70;;
70253;SDS011;57649;42.968;1.608;2023-04-19T09:07:43;5.60;;;2.70;;
70253;SDS011;57649;42.968;1.608;2023-04-19T09:10:10;4.55;;;2.17;;
70253;SDS011;57649;42.968;1.608;2023-04-19T09:12:37;4.05;;;2.17;;
70253;SDS011;57649;42.968;1.608;2023-04-19T09:15:05;4.38;;;2.00;;
70253;SDS011;57649;42.968;1.608;2023-04-19T09:17:32;3.95;;;2.17;;
70253;SDS011;57649;42.968;1.608;2023-04-19T09:20:03;3.75;;;1.98;;
70253;SDS011;57649;42.968;1.608;2023-04-19T09:22:30;4.68;;;2.08;;
70253;SDS011;57649;42.968;1.608;2023-04-19T09:24:56;4.53;;;2.10;;
70253;SDS011;57649;42.968;1.608;2023-04-19T09:27:29;10.68;;;2.67;;
70253;SDS011;57649;42.968;1.608;2023-04-19T09:30:00;2.70;;;1.83;;
70253;SDS011;57649;42.968;1.608;2023-04-19T09:32:27;10.18;;;2.67;;
70253;SDS011;57649;42.968;1.608;2023-04-19T09:34:56;7.78;;;2.55;;
70253;SDS011;57649;42.968;1.608;2023-04-19T09:37:23;4.90;;;1.90;;
70253;SDS011;57649;42.968;1.608;2023-04-19T09:39:50;5.00;;;2.10;;
70253;SDS011;57649;42.968;1.608;2023-04-19T09:42:17;3.13;;;1.90;;
70253;SDS011;57649;42.968;1.608;2023-04-19T09:44:57;3.70;;;2.33;;
70253;SDS011;57649;42.968;1.608;2023-04-19T09:47:23;6.00;;;2.10;;
70253;SDS011;57649;42.968;1.608;2023-04-19T09:50:08;2.78;;;1.73;;
70253;SDS011;57649;42.968;1.608;2023-04-19T09:52:35;4.10;;;2.20;;
70253;SDS011;57649;42.968;1.608;2023-04-19T09:55:01;3.55;;;1.70;;
70253;SDS011;57649;42.968;1.608;2023-04-19T09:57:29;4.35;;;1.60;;
70253;SDS011;57649;42.968;1.608;2023-04-19T09:59:55;2.97;;;2.13;;
70253;SDS011;57649;42.968;1.608;2023-04-19T10:02:22;5.10;;;2.10;;
70253;SDS011;57649;42.968;1.608;2023-04-19T10:04:49;3.35;;;1.35;;
70253;SDS011;57649;42.968;1.608;2023-04-19T10:07:16;4.15;;;1.70;;
70253;SDS011;57649;42.968;1.608;2023-04-19T10:09:41;2.85;;;1.63;;
70253;SDS011;57649;42.968;1.608;2023-04-19T10:12:07;5.72;;;1.48;;
70253;SDS011;57649;42.968;1.608;2023-04-19T10:14:33;4.32;;;1.73;;
70253;SDS011;57649;42.968;1.608;2023-04-19T10:17:00;3.70;;;1.55;;
70253;SDS011;57649;42.968;1.608;2023-04-19T10:19:26;3.47;;;1.90;;
70253;SDS011;57649;42.968;1.608;2023-04-19T10:21:52;5.05;;;1.92;;
70253;SDS011;57649;42.968;1.608;2023-04-19T10:24:20;3.35;;;1.50;;
70253;SDS011;57649;42.968;1.608;2023-04-19T10:32:27;3.08;;;1.67;;
70253;SDS011;57649;42.968;1.608;2023-04-19T10:35:11;3.97;;;1.67;;
70253;SDS011;57649;42.968;1.608;2023-04-19T10:38:00;4.43;;;1.60;;
70253;SDS011;57649;42.968;1.608;2023-04-19T10:43:31;2.85;;;1.50;;
70253;SDS011;57649;42.968;1.608;2023-04-19T10:45:59;6.13;;;1.80;;
70253;SDS011;57649;42.968;1.608;2023-04-19T10:48:38;2.03;;;1.48;;
70253;SDS011;57649;42.968;1.608;2023-04-19T10:51:16;2.72;;;1.50;;
70253;SDS011;57649;42.968;1.608;2023-04-19T10:53:46;2.53;;;1.48;;
70253;SDS011;57649;42.968;1.608;2023-04-19T10:56:12;2.83;;;1.63;;
70253;SDS011;57649;42.968;1.608;2023-04-19T11:09:23;2.85;;;1.48;;
70253;SDS011;57649;42.968;1.608;2023-04-19T11:11:51;3.55;;;1.63;;
70253;SDS011;57649;42.968;1.608;2023-04-19T11:14:17;3.70;;;1.50;;
70253;SDS011;57649;42.968;1.608;2023-04-19T11:16:45;5.80;;;1.77;;
70253;SDS011;57649;42.968;1.608;2023-04-19T11:19:17;5.32;;;2.10;;
70253;SDS011;57649;42.968;1.608;2023-04-19T11:21:46;2.75;;;1.50;;
70253;SDS011;57649;42.968;1.608;2023-04-19T11:24:13;2.45;;;1.55;;
70253;SDS011;57649;42.968;1.608;2023-04-19T11:26:45;2.78;;;1.35;;
70253;SDS011;57649;42.968;1.608;2023-04-19T11:29:12;3.55;;;1.80;;
70253;SDS011;57649;42.968;1.608;2023-04-19T11:31:37;4.35;;;1.80;;
70253;SDS011;57649;42.968;1.608;2023-04-19T11:34:03;7.82;;;1.60;;
70253;SDS011;57649;42.968;1.608;2023-04-19T11:36:29;2.38;;;1.42;;
70253;SDS011;57649;42.968;1.608;2023-04-19T11:39:01;2.42;;;1.50;;
70253;SDS011;57649;42.968;1.608;2023-04-19T11:41:29;3.00;;;1.50;;
70253;SDS011;57649;42.968;1.608;2023-04-19T11:44:00;3.15;;;1.65;;
70253;SDS011;57649;42.968;1.608;2023-04-19T11:46:26;5.00;;;1.67;;
70253;SDS011;57649;42.968;1.608;2023-04-19T11:48:51;5.05;;;1.83;;
70253;SDS011;57649;42.968;1.608;2023-04-19T11:51:18;2.95;;;1.50;;
70253;SDS011;57649;42.968;1.608;2023-04-19T11:53:44;4.22;;;1.60;;
70253;SDS011;57649;42.968;1.608;2023-04-19T11:56:10;4.50;;;1.77;;
70253;SDS011;57649;42.968;1.608;2023-04-19T11:58:36;6.85;;;1.55;;
70253;SDS011;57649;42.968;1.608;2023-04-19T12:01:07;5.07;;;1.60;;
70253;SDS011;57649;42.968;1.608;2023-04-19T12:03:34;10.85;;;2.33;;
70253;SDS011;57649;42.968;1.608;2023-04-19T12:06:24;5.05;;;1.83;;
70253;SDS011;57649;42.968;1.608;2023-04-19T12:08:51;3.47;;;1.63;;
70253;SDS011;57649;42.968;1.608;2023-04-19T12:11:20;3.20;;;1.70;;
70253;SDS011;57649;42.968;1.608;2023-04-19T12:16:31;3.85;;;1.38;;
70253;SDS011;57649;42.968;1.608;2023-04-19T12:18:56;3.03;;;1.60;;
70253;SDS011;57649;42.968;1.608;2023-04-19T12:21:26;3.92;;;1.50;;
70253;SDS011;57649;42.968;1.608;2023-04-19T12:23:53;5.43;;;1.70;;
70253;SDS011;57649;42.968;1.608;2023-04-19T12:26:20;3.25;;;1.63;;
70253;SDS011;57649;42.968;1.608;2023-04-19T12:28:45;5.75;;;1.77;;
70253;SDS011;57649;42.968;1.608;2023-04-19T12:31:10;3.35;;;1.90;;
70253;SDS011;57649;42.968;1.608;2023-04-19T12:33:36;3.30;;;1.65;;
70253;SDS011;57649;42.968;1.608;2023-04-19T12:36:01;4.40;;;1.70;;
70253;SDS011;57649;42.968;1.608;2023-04-19T12:38:26;3.95;;;1.50;;
70253;SDS011;57649;42.968;1.608;2023-04-19T12:40:52;4.53;;;1.75;;
70253;SDS011;57649;42.968;1.608;2023-04-19T12:43:17;3.08;;;1.40;;
70253;SDS011;57649;42.968;1.608;2023-04-19T12:45:43;7.53;;;2.40;;
70253;SDS011;57649;42.968;1.608;2023-04-19T12:48:08;2.95;;;1.80;;
70253;SDS011;57649;42.968;1.608;2023-04-19T12:50:33;2.03;;;1.30;;
70253;SDS011;57649;42.968;1.608;2023-04-19T12:52:59;3.13;;;1.83;;
70253;SDS011;57649;42.968;1.608;2023-04-19T12:55:24;5.57;;;1.83;;
70253;SDS011;57649;42.968;1.608;2023-04-19T12:57:50;5.10;;;1.70;;
70253;SDS011;57649;42.968;1.608;2023-04-19T13:00:15;4.38;;;2.10;;
70253;SDS011;57649;42.968;1.608;2023-04-19T13:02:41;2.30;;;1.50;;
70253;SDS011;57649;42.968;1.608;2023-04-19T13:05:07;5.97;;;2.00;;
70253;SDS011;57649;42.968;1.608;2023-04-19T13:07:32;5.13;;;1.60;;
70253;SDS011;57649;42.968;1.608;2023-04-19T13:09:58;4.88;;;1.58;;
70253;SDS011;57649;42.968;1.608;2023-04-19T13:12:24;3.80;;;1.63;;
70253;SDS011;57649;42.968;1.608;2023-04-19T13:14:49;2.13;;;1.33;;
70253;SDS011;57649;42.968;1.608;2023-04-19T13:17:16;5.10;;;2.17;;
70253;SDS011;57649;42.968;1.608;2023-04-19T13:19:45;7.40;;;1.80;;
70253;SDS011;57649;42.968;1.608;2023-04-19T13:22:11;4.25;;;1.70;;
70253;SDS011;57649;42.968;1.608;2023-04-19T13:24:36;4.85;;;1.65;;
70253;SDS011;57649;42.968;1.608;2023-04-19T13:27:02;3.47;;;2.13;;
70253;SDS011;57649;42.968;1.608;2023-04-19T13:29:27;3.28;;;1.65;;
70253;SDS011;57649;42.968;1.608;2023-04-19T13:31:53;3.83;;;1.60;;
70253;SDS011;57649;42.968;1.608;2023-04-19T13:34:19;2.35;;;1.50;;
70253;SDS011;57649;42.968;1.608;2023-04-19T13:36:45;2.75;;;1.70;;
70253;SDS011;57649;42.968;1.608;2023-04-19T13:39:10;3.15;;;1.45;;
70253;SDS011;57649;42.968;1.608;2023-04-19T13:41:35;3.63;;;1.55;;
70253;SDS011;57649;42.968;1.608;2023-04-19T13:44:01;5.13;;;1.70;;
70253;SDS011;57649;42.968;1.608;2023-04-19T13:46:26;5.50;;;1.50;;
70253;SDS011;57649;42.968;1.608;2023-04-19T13:48:52;3.05;;;1.60;;
70253;SDS011;57649;42.968;1.608;2023-04-19T13:51:17;5.35;;;1.60;;
70253;SDS011;57649;42.968;1.608;2023-04-19T13:53:42;4.45;;;1.75;;
70253;SDS011;57649;42.968;1.608;2023-04-19T13:56:08;3.00;;;1.40;;
70253;SDS011;57649;42.968;1.608;2023-04-19T13:58:36;3.08;;;1.50;;
70253;SDS011;57649;42.968;1.608;2023-04-19T14:01:02;5.32;;;1.67;;
70253;SDS011;57649;42.968;1.608;2023-04-19T14:03:43;4.38;;;1.50;;
70253;SDS011;57649;42.968;1.608;2023-04-19T14:06:08;5.35;;;1.90;;
70253;SDS011;57649;42.968;1.608;2023-04-19T14:08:34;4.68;;;2.00;;
70253;SDS011;57649;42.968;1.608;2023-04-19T14:10:59;2.53;;;1.80;;
70253;SDS011;57649;42.968;1.608;2023-04-19T14:13:25;5.75;;;2.00;;
70253;SDS011;57649;42.968;1.608;2023-04-19T14:15:51;2.83;;;1.50;;
70253;SDS011;57649;42.968;1.608;2023-04-19T14:18:16;3.13;;;1.25;;
70253;SDS011;57649;42.968;1.608;2023-04-19T14:20:41;2.75;;;1.40;;
70253;SDS011;57649;42.968;1.608;2023-04-19T14:23:07;6.20;;;2.30;;
70253;SDS011;57649;42.968;1.608;2023-04-19T14:25:32;4.03;;;1.42;;
70253;SDS011;57649;42.968;1.608;2023-04-19T14:27:58;3.80;;;1.83;;
70253;SDS011;57649;42.968;1.608;2023-04-19T14:30:23;7.85;;;2.65;;
70253;SDS011;57649;42.968;1.608;2023-04-19T14:32:50;4.75;;;1.60;;
70253;SDS011;57649;42.968;1.608;2023-04-19T14:35:16;4.28;;;2.25;;
70253;SDS011;57649;42.968;1.608;2023-04-19T14:37:41;4.93;;;2.10;;
70253;SDS011;57649;42.968;1.608;2023-04-19T14:40:07;6.13;;;1.77;;
70253;SDS011;57649;42.968;1.608;2023-04-19T14:42:32;3.17;;;1.45;;
70253;SDS011;57649;42.968;1.608;2023-04-19T14:44:58;2.58;;;1.52;;
70253;SDS011;57649;42.968;1.608;2023-04-19T14:47:23;5.55;;;1.40;;
70253;SDS011;57649;42.968;1.608;2023-04-19T14:49:49;2.85;;;1.60;;
70253;SDS011;57649;42.968;1.608;2023-04-19T14:52:14;5.03;;;1.80;;
70253;SDS011;57649;42.968;1.608;2023-04-19T14:54:40;3.08;;;1.77;;
70253;SDS011;57649;42.968;1.608;2023-04-19T14:57:06;9.18;;;1.83;;
70253;SDS011;57649;42.968;1.608;2023-04-19T14:59:31;3.10;;;1.52;;
70253;SDS011;57649;42.968;1.608;2023-04-19T15:01:57;4.43;;;1.60;;